Time;durP1;ratioP1;P1;durP2;ratioP2;P2;SDS_P1;SDS_P2;PMS_P1;PMS_P2;Temp;Humidity;BMP_temperature;BMP_pressure;BME280_temperature;BME280_humidity;BME280_pressure;Samples;Min_cycle;Max_cycle;Signal;HPM_P1;HPM_P2
2022/03/19 00:00:12;;;;;;;15.13;5.60;;;;;;;6.68;100.00;104421.69;5074433;28;20056;-65
2022/03/19 00:02:40;;;;;;;14.10;5.72;;;;;;;6.69;100.00;104419.94;5072917;28;20127;-65
2022/03/19 00:05:09;;;;;;;14.85;6.32;;;;;;;6.68;100.00;104411.22;5074372;28;20124;-65
2022/03/19 00:07:40;;;;;;;17.70;5.78;;;;;;;6.60;100.00;104418.16;5073120;28;20040;-66
2022/03/19 00:10:10;;;;;;;15.35;5.35;;;;;;;6.57;100.00;104413.75;5074138;28;20048;-66
2022/03/19 00:12:40;;;;;;;13.85;5.20;;;;;;;6.60;100.00;104419.00;5074183;28;20095;-65
2022/03/19 00:15:10;;;;;;;17.90;5.45;;;;;;;6.65;100.00;104416.41;5073891;28;20106;-66
2022/03/19 00:17:39;;;;;;;14.68;5.00;;;;;;;6.59;100.00;104414.63;5073572;28;20052;-66
2022/03/19 00:20:08;;;;;;;17.90;6.00;;;;;;;6.53;100.00;104417.22;5073845;28;20395;-65
2022/03/19 00:22:37;;;;;;;15.63;5.30;;;;;;;6.51;100.00;104416.31;5073610;28;20479;-65
2022/03/19 00:25:08;;;;;;;13.68;5.20;;;;;;;6.52;100.00;104415.44;5073691;28;20561;-65
2022/03/19 00:27:36;;;;;;;16.02;4.88;;;;;;;6.56;100.00;104422.47;5073791;28;20051;-66
2022/03/19 00:30:06;;;;;;;12.32;5.50;;;;;;;6.53;100.00;104411.97;5073544;28;20090;-65
2022/03/19 00:32:35;;;;;;;13.07;4.60;;;;;;;6.51;100.00;104425.91;5073198;28;20416;-65
2022/03/19 00:35:05;;;;;;;12.43;4.57;;;;;;;6.42;100.00;104411.88;5072957;28;20079;-65
2022/03/19 00:37:42;;;;;;;19.38;5.75;;;;;;;6.42;100.00;104413.59;5073712;28;20051;-66
2022/03/19 00:40:12;;;;;;;18.75;4.97;;;;;;;6.41;100.00;104427.56;5073522;28;20048;-66
2022/03/19 00:42:41;;;;;;;12.43;4.25;;;;;;;6.36;100.00;104424.03;5073245;28;20044;-66
2022/03/19 00:45:13;;;;;;;13.60;4.90;;;;;;;6.34;100.00;104416.16;5106170;28;20075;-65
2022/03/19 00:47:41;;;;;;;16.63;4.80;;;;;;;6.36;100.00;104413.56;5073410;28;20106;-65
2022/03/19 00:50:10;;;;;;;16.67;5.20;;;;;;;6.40;100.00;104412.72;5072915;28;20049;-65
2022/03/19 00:52:40;;;;;;;12.00;4.20;;;;;;;6.36;100.00;104411.81;5072973;28;20057;-66
2022/03/19 00:55:09;;;;;;;13.52;4.75;;;;;;;6.29;100.00;104416.97;5073282;28;20072;-65
2022/03/19 00:57:42;;;;;;;16.17;5.03;;;;;;;6.31;100.00;104413.50;5072838;28;20094;-65
2022/03/19 01:00:13;;;;;;;17.25;4.88;;;;;;;6.29;100.00;104409.16;5073241;28;20036;-65
2022/03/19 01:02:45;;;;;;;13.13;4.93;;;;;;;6.29;100.00;104409.16;5073144;28;20078;-65
2022/03/19 01:05:15;;;;;;;15.00;5.30;;;;;;;6.29;100.00;104401.28;5073094;28;20048;-65
2022/03/19 01:07:46;;;;;;;12.02;4.78;;;;;;;6.28;100.00;104400.41;5073123;28;20045;-65
2022/03/19 01:10:16;;;;;;;16.48;4.10;;;;;;;6.15;100.00;104399.41;5072831;28;20499;-66
2022/03/19 01:12:45;;;;;;;12.90;4.90;;;;;;;6.15;100.00;104398.53;5073044;28;20099;-65
2022/03/19 01:15:17;;;;;;;14.05;5.03;;;;;;;6.14;100.00;104396.78;5073000;28;20072;-65
2022/03/19 01:17:45;;;;;;;14.00;4.95;;;;;;;6.08;100.00;104394.97;5072730;28;20052;-65
2022/03/19 01:20:16;;;;;;;16.23;5.20;;;;;;;6.06;100.00;104383.63;5072808;28;20044;-65
2022/03/19 01:22:47;;;;;;;23.40;5.38;;;;;;;6.00;100.00;104389.69;5071456;28;20454;-65
2022/03/19 01:25:17;;;;;;;15.32;5.00;;;;;;;6.02;100.00;104387.94;5072683;28;20040;-64
2022/03/19 01:27:47;;;;;;;17.25;4.80;;;;;;;6.01;100.00;104395.78;5072671;28;20048;-65
2022/03/19 01:30:19;;;;;;;14.70;5.18;;;;;;;6.01;100.00;104385.31;5072513;28;20048;-65
2022/03/19 01:32:47;;;;;;;18.63;5.30;;;;;;;5.99;100.00;104384.44;5071916;28;20044;-57
2022/03/19 01:35:17;;;;;;;20.00;5.50;;;;;;;5.99;100.00;104382.69;5071870;28;20076;-58
2022/03/19 01:37:46;;;;;;;14.75;5.47;;;;;;;6.01;100.00;104374.88;5072152;28;20477;-57
2022/03/19 01:40:16;;;;;;;14.68;5.93;;;;;;;6.10;100.00;104374.97;5072331;28;20523;-57
2022/03/19 01:42:46;;;;;;;16.63;5.75;;;;;;;6.04;100.00;104374.88;5072340;28;20727;-58
2022/03/19 01:45:19;;;;;;;16.77;5.97;;;;;;;5.99;100.00;104381.81;5072203;28;20430;-57
2022/03/19 01:47:48;;;;;;;19.95;6.40;;;;;;;5.97;100.00;104380.88;5072290;28;20056;-58
2022/03/19 01:50:18;;;;;;;18.15;5.80;;;;;;;5.96;100.00;104379.13;5070806;28;20059;-58
2022/03/19 01:52:46;;;;;;;17.88;5.47;;;;;;;5.95;100.00;104375.66;5072203;28;20079;-58
2022/03/19 01:55:18;;;;;;;18.20;5.85;;;;;;;5.94;100.00;104379.13;5072187;28;20045;-57
2022/03/19 01:57:47;;;;;;;22.30;5.65;;;;;;;5.97;100.00;104384.41;5072031;28;20064;-58
2022/03/19 02:00:21;;;;;;;16.23;5.78;;;;;;;5.92;100.00;104373.88;5072120;28;20037;-58
2022/03/19 02:02:50;;;;;;;18.63;5.47;;;;;;;5.85;100.00;104379.00;5072165;28;20106;-57
2022/03/19 02:05:21;;;;;;;17.17;5.72;;;;;;;5.83;100.00;104376.38;5070700;28;20053;-58
2022/03/19 02:07:50;;;;;;;13.93;5.75;;;;;;;5.75;100.00;104383.25;5071833;28;20070;-57
2022/03/19 02:10:21;;;;;;;19.20;6.25;;;;;;;5.74;100.00;104379.78;5070578;28;20055;-57
2022/03/19 02:12:50;;;;;;;17.58;5.50;;;;;;;5.70;100.00;104385.81;5071679;28;20056;-57
2022/03/19 02:15:20;;;;;;;19.77;5.75;;;;;;;5.68;100.00;104386.66;5071970;28;20036;-57
2022/03/19 02:17:48;;;;;;;17.98;6.15;;;;;;;5.62;100.00;104389.19;5072092;28;20102;-57
2022/03/19 02:20:18;;;;;;;20.35;6.03;;;;;;;5.63;100.00;104378.78;5072425;28;20692;-58
2022/03/19 02:25:34;;;;;;;15.18;5.97;;;;;;;5.59;100.00;104374.38;5071642;28;20048;-57
2022/03/19 02:25:35;;;;;;;20.98;6.10;;;;;;;5.54;100.00;104386.50;5071341;28;20048;-57
2022/03/19 02:28:03;;;;;;;18.38;6.47;;;;;;;5.56;100.00;104383.06;5071824;28;20097;-57
2022/03/19 02:30:32;;;;;;;14.55;6.00;;;;;;;5.55;100.00;104381.28;5071768;28;20123;-57
2022/03/19 02:33:00;;;;;;;17.30;5.75;;;;;;;5.62;100.00;104373.50;5071612;28;20048;-57
2022/03/19 02:35:29;;;;;;;18.20;6.57;;;;;;;5.59;100.00;104374.38;5071665;28;20049;-57
2022/03/19 02:37:57;;;;;;;15.55;5.10;;;;;;;5.60;100.00;104373.50;5070332;28;20044;-58
2022/03/19 02:40:25;;;;;;;17.55;5.57;;;;;;;5.54;100.00;104374.31;5071545;28;20052;-58
2022/03/19 02:42:56;;;;;;;18.77;6.22;;;;;;;5.51;100.00;104362.97;5071813;28;20708;-57
2022/03/19 02:45:25;;;;;;;23.00;6.53;;;;;;;5.45;100.00;104362.88;5071323;28;20183;-57
2022/03/19 02:48:00;;;;;;;18.02;5.88;;;;;;;5.53;100.00;104364.72;5071832;28;20569;-57
2022/03/19 02:50:31;;;;;;;16.30;5.70;;;;;;;5.51;100.00;104358.59;5071355;28;20064;-57
2022/03/19 02:53:01;;;;;;;16.73;6.03;;;;;;;5.57;100.00;104361.28;5071657;28;20053;-57
2022/03/19 02:55:32;;;;;;;18.98;6.38;;;;;;;5.57;100.00;104353.44;5071523;28;20044;-57
2022/03/19 02:58:02;;;;;;;17.35;5.78;;;;;;;5.59;100.00;104354.34;5070207;28;20101;-57
2022/03/19 03:00:30;;;;;;;18.88;5.57;;;;;;;5.57;100.00;104352.56;5071599;28;20052;-57
2022/03/19 03:02:59;;;;;;;18.45;6.13;;;;;;;5.53;100.00;104353.41;5071400;28;20032;-57
2022/03/19 03:05:27;;;;;;;18.83;5.82;;;;;;;5.55;100.00;104344.72;5071230;28;20114;-57
2022/03/19 03:07:55;;;;;;;18.50;6.43;;;;;;;5.49;100.00;104336.81;5070959;28;20044;-57
2022/03/19 03:10:24;;;;;;;19.13;5.90;;;;;;;5.54;100.00;104337.75;5071212;28;20036;-57
2022/03/19 03:12:52;;;;;;;16.70;5.50;;;;;;;5.57;100.00;104337.78;5071334;28;20481;-57
2022/03/19 03:15:21;;;;;;;12.38;5.63;;;;;;;5.53;100.00;104336.00;5071281;28;20129;-57
2022/03/19 03:17:49;;;;;;;21.30;6.10;;;;;;;5.53;100.00;104335.13;5071309;28;20051;-57
2022/03/19 03:20:18;;;;;;;18.77;5.88;;;;;;;5.55;100.00;104336.91;5071589;28;20045;-58
2022/03/19 03:22:46;;;;;;;19.75;5.80;;;;;;;5.58;100.00;104329.09;5074812;28;20506;-57
2022/03/19 03:25:14;;;;;;;19.50;6.55;;;;;;;5.52;100.00;104343.81;5074539;28;20070;-57
2022/03/19 03:27:42;;;;;;;17.35;6.28;;;;;;;5.44;100.00;104335.00;5074870;28;20037;-57
2022/03/19 03:30:11;;;;;;;23.05;6.00;;;;;;;5.39;100.00;104348.00;5074995;28;20371;-58
2022/03/19 03:32:40;;;;;;;18.75;6.20;;;;;;;5.45;100.00;104342.00;5074575;28;20447;-58
2022/03/19 03:35:09;;;;;;;21.02;6.03;;;;;;;5.41;100.00;104341.06;5074283;28;20044;-57
2022/03/19 03:37:37;;;;;;;16.67;5.55;;;;;;;5.31;100.00;104334.84;5073913;28;20077;-57
2022/03/19 03:40:07;;;;;;;24.45;6.32;;;;;;;5.26;100.00;104341.75;5074004;28;20072;-58
2022/03/19 03:42:40;;;;;;;17.33;6.32;;;;;;;5.28;100.00;104334.81;5074502;28;20407;-58
2022/03/19 03:45:10;;;;;;;14.93;6.07;;;;;;;5.31;100.00;104328.78;5073347;28;20052;-57
2022/03/19 03:47:40;;;;;;;17.08;6.80;;;;;;;5.28;100.00;104336.56;5074528;28;20098;-58
2022/03/19 03:50:09;;;;;;;16.33;6.75;;;;;;;5.30;100.00;104327.00;5074006;28;20056;-57
2022/03/19 03:52:37;;;;;;;16.67;6.15;;;;;;;5.25;100.00;104329.56;5074042;28;20457;-58
2022/03/19 03:55:07;;;;;;;15.35;5.90;;;;;;;5.21;100.00;104331.25;5074197;28;20056;-58
2022/03/19 03:57:36;;;;;;;22.35;6.75;;;;;;;5.28;100.00;104329.59;5074340;28;20547;-58
2022/03/19 04:00:08;;;;;;;21.55;6.68;;;;;;;5.21;100.00;104322.56;5074142;28;20437;-58
2022/03/19 04:02:36;;;;;;;20.77;6.78;;;;;;;5.18;100.00;104331.22;5074028;28;20051;-58
2022/03/19 04:05:07;;;;;;;19.13;6.57;;;;;;;5.18;100.00;104326.00;5074149;28;20499;-59
2022/03/19 04:07:35;;;;;;;21.95;6.97;;;;;;;5.12;100.00;104325.03;5074013;28;20056;-58
2022/03/19 04:10:04;;;;;;;17.23;6.72;;;;;;;5.13;100.00;104324.19;5074202;28;20048;-58
2022/03/19 04:12:33;;;;;;;16.48;7.25;;;;;;;5.12;100.00;104328.53;5074055;28;20068;-59
2022/03/19 04:15:02;;;;;;;19.90;6.60;;;;;;;5.07;100.00;104323.25;5073907;28;20540;-58
2022/03/19 04:17:30;;;;;;;15.52;6.78;;;;;;;5.06;100.00;104315.41;5074176;28;20044;-58
2022/03/19 04:19:58;;;;;;;20.60;7.30;;;;;;;5.03;100.00;104317.94;5073540;28;20056;-58
2022/03/19 04:22:35;;;;;;;16.73;7.13;;;;;;;5.03;100.00;104316.25;5073617;28;20483;-58
2022/03/19 04:25:03;;;;;;;15.82;6.95;;;;;;;5.03;100.00;104317.94;5073580;28;20059;-59
2022/03/19 04:27:31;;;;;;;18.10;7.97;;;;;;;4.97;100.00;104312.66;5072203;28;20479;-58
2022/03/19 04:29:59;;;;;;;22.27;7.78;;;;;;;4.93;100.00;104316.09;5106128;28;20604;-58
2022/03/19 04:32:29;;;;;;;19.60;8.25;;;;;;;4.90;100.00;104309.09;5072856;28;20447;-58
2022/03/19 04:34:57;;;;;;;23.10;8.10;;;;;;;4.88;100.00;104314.28;5073523;28;20540;-58
2022/03/19 04:37:25;;;;;;;17.60;7.93;;;;;;;4.88;100.00;104318.59;5073330;28;20060;-58
2022/03/19 04:39:54;;;;;;;17.67;7.43;;;;;;;4.82;100.00;104310.72;5073201;28;20052;-58
2022/03/19 04:42:23;;;;;;;16.88;8.05;;;;;;;4.83;100.00;104310.72;5073138;28;20044;-58
2022/03/19 04:44:51;;;;;;;17.40;7.40;;;;;;;4.87;100.00;104298.63;5073024;28;20093;-59
2022/03/19 04:47:19;;;;;;;15.10;7.15;;;;;;;4.89;100.00;104297.78;5073155;28;20495;-59
2022/03/19 04:49:48;;;;;;;20.70;8.15;;;;;;;4.85;100.00;104302.94;5073036;28;20060;-58
2022/03/19 04:52:16;;;;;;;19.98;8.20;;;;;;;4.83;100.00;104310.72;5072793;28;20438;-58
2022/03/19 04:54:44;;;;;;;23.67;8.00;;;;;;;4.81;100.00;104307.22;5072917;28;20051;-58
2022/03/19 04:57:14;;;;;;;18.70;8.10;;;;;;;4.77;100.00;104305.41;5073088;28;20068;-59
2022/03/19 04:59:42;;;;;;;18.98;8.02;;;;;;;4.73;100.00;104309.72;5072929;28;20044;-58
2022/03/19 05:02:10;;;;;;;19.92;9.02;;;;;;;4.78;100.00;104307.16;5072396;28;20568;-58
2022/03/19 05:04:38;;;;;;;19.90;7.60;;;;;;;4.73;100.00;104314.03;5072290;28;20406;-58
2022/03/19 05:07:06;;;;;;;20.58;7.60;;;;;;;4.81;100.00;104317.63;5072506;28;20051;-59
2022/03/19 05:12:30;;;;;;;17.60;8.15;;;;;;;4.62;100.00;104326.06;5072850;28;20503;-58
2022/03/19 05:14:58;;;;;;;18.60;7.75;;;;;;;4.65;100.00;104328.69;5072662;28;20093;-58
2022/03/19 05:17:26;;;;;;;18.42;7.90;;;;;;;4.63;100.00;104333.03;5072553;28;20071;-58
2022/03/19 05:19:55;;;;;;;23.52;9.43;;;;;;;4.63;100.00;104331.28;5072529;28;20044;-59
2022/03/19 05:22:23;;;;;;;21.35;7.90;;;;;;;4.61;100.00;104329.50;5072650;28;20506;-57
2022/03/19 05:24:51;;;;;;;18.95;7.90;;;;;;;4.64;100.00;104332.19;5072502;28;20479;-57
2022/03/19 05:27:19;;;;;;;19.30;8.52;;;;;;;4.59;100.00;104328.63;5072334;28;20044;-57
2022/03/19 05:29:48;;;;;;;23.45;8.90;;;;;;;4.60;100.00;104327.78;5072345;28;20052;-58
2022/03/19 05:32:17;;;;;;;19.92;7.95;;;;;;;4.53;100.00;104329.41;5072379;28;20094;-57
2022/03/19 05:34:46;;;;;;;18.63;8.55;;;;;;;4.48;100.00;104333.66;5072352;28;20052;-58
2022/03/19 05:37:15;;;;;;;17.05;7.28;;;;;;;4.54;100.00;104331.13;5072533;28;20079;-58
2022/03/19 05:39:43;;;;;;;19.05;7.40;;;;;;;4.55;100.00;104331.19;5072280;28;20119;-58
2022/03/19 05:42:12;;;;;;;18.05;7.72;;;;;;;4.51;100.00;104339.81;5072198;28;20049;-57
2022/03/19 05:44:40;;;;;;;21.15;8.52;;;;;;;4.47;100.00;104326.69;5071177;28;20506;-58
2022/03/19 05:47:10;;;;;;;19.45;7.75;;;;;;;4.40;100.00;104334.44;5071868;28;20037;-58
2022/03/19 05:49:38;;;;;;;16.60;7.72;;;;;;;4.44;100.00;104343.16;5071973;28;20048;-58
2022/03/19 05:52:07;;;;;;;15.95;7.40;;;;;;;4.38;100.00;104343.06;5071822;28;20131;-58
2022/03/19 05:54:35;;;;;;;21.10;7.97;;;;;;;4.33;100.00;104352.53;5071056;28;20053;-57
2022/03/19 05:57:03;;;;;;;17.52;8.00;;;;;;;4.29;100.00;104348.97;5072068;28;20040;-58
2022/03/19 05:59:31;;;;;;;20.70;7.93;;;;;;;4.22;100.00;104348.00;5072126;28;20044;-58
2022/03/19 06:02:00;;;;;;;21.25;7.70;;;;;;;4.30;100.00;104340.31;5071904;28;20107;-58
2022/03/19 06:04:30;;;;;;;17.85;8.15;;;;;;;4.33;100.00;104339.50;5070114;28;20060;-57
2022/03/19 06:06:58;;;;;;;20.30;7.13;;;;;;;4.26;100.00;104342.84;5071582;28;20127;-58
2022/03/19 06:09:26;;;;;;;23.70;7.82;;;;;;;4.31;100.00;104354.22;5072057;28;20094;-58
2022/03/19 06:11:54;;;;;;;17.00;8.07;;;;;;;4.28;100.00;104354.16;5071911;28;20055;-57
2022/03/19 06:14:22;;;;;;;18.70;7.53;;;;;;;4.23;100.00;104348.88;5071757;28;20044;-57
2022/03/19 06:16:50;;;;;;;14.60;7.32;;;;;;;4.23;100.00;104348.88;5071495;28;20059;-57
2022/03/19 06:19:19;;;;;;;15.88;7.38;;;;;;;4.23;100.00;104347.16;5071471;28;20537;-57
2022/03/19 06:21:49;;;;;;;19.38;8.07;;;;;;;4.24;100.00;104350.66;5071365;28;20116;-58
2022/03/19 06:24:17;;;;;;;15.13;8.02;;;;;;;4.21;100.00;104347.97;5071233;28;20569;-57
2022/03/19 06:26:45;;;;;;;17.10;8.13;;;;;;;4.25;100.00;104341.09;5071618;28;20041;-58
2022/03/19 06:29:13;;;;;;;20.60;7.10;;;;;;;4.30;100.00;104347.28;5071727;28;20052;-57
2022/03/19 06:31:41;;;;;;;16.95;6.70;;;;;;;4.28;100.00;104341.13;5071859;28;20091;-57
2022/03/19 06:34:09;;;;;;;18.50;7.70;;;;;;;4.28;100.00;104333.31;5071562;28;20049;-57
2022/03/19 06:39:24;;;;;;;15.55;7.63;;;;;;;4.34;100.00;104328.22;5071430;28;20041;-56
2022/03/19 06:41:52;;;;;;;14.60;7.43;;;;;;;4.38;100.00;104332.63;5071630;28;20500;-61
2022/03/19 06:44:21;;;;;;;18.70;6.90;;;;;;;4.37;100.00;104323.06;5071661;28;20178;-63
2022/03/19 06:46:49;;;;;;;16.55;7.00;;;;;;;4.46;100.00;104327.53;5071455;28;20079;-57
2022/03/19 06:49:17;;;;;;;16.98;6.90;;;;;;;4.47;100.00;104330.19;5071371;28;20049;-57
2022/03/19 06:51:45;;;;;;;17.50;6.28;;;;;;;4.53;100.00;104335.47;5071327;28;20422;-61
2022/03/19 06:54:13;;;;;;;13.90;6.88;;;;;;;4.61;100.00;104321.69;5071627;28;20048;-61
2022/03/19 06:56:42;;;;;;;15.52;6.75;;;;;;;4.70;100.00;104335.78;5074071;28;20063;-61
2022/03/19 06:59:13;;;;;;;18.95;7.00;;;;;;;4.68;100.00;104336.59;5075483;28;20147;-61
2022/03/19 07:01:42;;;;;;;17.77;6.97;;;;;;;4.73;100.00;104330.59;5075528;28;20048;-61
2022/03/19 07:04:10;;;;;;;14.55;6.80;;;;;;;4.77;100.00;104312.38;5075222;28;20036;-61
2022/03/19 07:06:38;;;;;;;12.85;5.88;;;;;;;4.79;100.00;104335.03;5075225;28;20048;-61
2022/03/19 07:09:26;;;;;;;18.60;6.32;;;;;;;4.93;100.00;104324.78;5075089;28;20113;-61
2022/03/19 07:11:56;;;;;;;14.38;6.47;;;;;;;5.00;100.00;104320.53;5075221;28;20075;-61
2022/03/19 07:14:24;;;;;;;17.35;5.78;;;;;;;5.03;100.00;104321.47;5074878;28;20044;-61
2022/03/19 07:16:52;;;;;;;13.38;5.50;;;;;;;5.08;100.00;104316.28;5074894;28;20052;-61
2022/03/19 07:19:20;;;;;;;15.48;5.60;;;;;;;5.19;100.00;104326.88;5075143;28;20471;-61
2022/03/19 07:21:48;;;;;;;15.52;5.57;;;;;;;5.26;100.00;104328.69;5074909;28;20336;-61
2022/03/19 07:24:16;;;;;;;13.65;5.63;;;;;;;5.30;100.00;104333.09;5073596;28;20075;-61
2022/03/19 07:26:44;;;;;;;14.88;5.32;;;;;;;5.41;100.00;104328.91;5073621;28;20055;-62
2022/03/19 07:29:18;;;;;;;15.77;4.97;;;;;;;5.51;100.00;104329.88;5074776;28;20471;-61
2022/03/19 07:31:51;;;;;;;13.77;5.20;;;;;;;5.61;100.00;104325.66;5074840;28;20442;-57
2022/03/19 07:34:19;;;;;;;15.20;5.88;;;;;;;5.79;99.92;104321.47;5074307;28;20047;-57
2022/03/19 07:36:47;;;;;;;12.45;5.25;;;;;;;5.89;98.74;104318.97;5074806;28;20047;-57
2022/03/19 07:39:15;;;;;;;14.05;5.50;;;;;;;6.01;98.75;104322.59;5073187;28;20097;-57
2022/03/19 07:41:45;;;;;;;14.50;5.03;;;;;;;6.19;98.50;104328.00;5074763;28;20048;-57
2022/03/19 07:44:15;;;;;;;15.75;5.13;;;;;;;6.32;98.10;104320.28;5074807;28;20357;-57
2022/03/19 07:46:43;;;;;;;12.57;5.90;;;;;;;6.42;97.00;104311.63;5074481;28;20037;-57
2022/03/19 07:49:12;;;;;;;17.63;6.60;;;;;;;6.59;97.25;104323.09;5074561;28;20114;-57
2022/03/19 07:51:41;;;;;;;19.73;6.55;;;;;;;6.84;95.65;104318.00;5074131;28;20114;-56
2022/03/19 07:54:09;;;;;;;13.35;5.63;;;;;;;7.01;94.06;104327.69;5073862;28;20056;-58
2022/03/19 07:56:37;;;;;;;17.58;6.00;;;;;;;7.11;92.90;104316.44;5074209;28;20105;-57
2022/03/19 07:59:06;;;;;;;15.60;5.43;;;;;;;7.23;91.78;104320.84;5074345;28;20395;-57
2022/03/19 08:01:35;;;;;;;12.57;5.45;;;;;;;7.27;89.60;104326.09;5074132;28;20071;-57
2022/03/19 08:04:09;;;;;;;17.70;4.70;;;;;;;7.46;89.62;104318.31;5074180;28;20041;-57
2022/03/19 08:06:37;;;;;;;13.68;4.82;;;;;;;7.68;88.39;104321.00;5073521;28;20055;-57
2022/03/19 08:09:07;;;;;;;9.85;4.90;;;;;;;7.93;87.69;104317.56;5073042;28;20494;-57
2022/03/19 08:11:36;;;;;;;11.90;4.97;;;;;;;7.99;85.86;104328.91;5073539;28;20047;-57
2022/03/19 08:14:04;;;;;;;12.60;5.07;;;;;;;8.02;85.39;104313.22;5073577;28;20079;-57
2022/03/19 08:16:32;;;;;;;16.88;5.47;;;;;;;8.19;83.28;104319.31;5073937;28;20040;-57
2022/03/19 08:19:02;;;;;;;12.10;4.97;;;;;;;8.33;83.26;104313.19;5072406;28;20052;-57
2022/03/19 08:21:30;;;;;;;15.20;5.50;;;;;;;8.43;82.20;104315.81;5073895;28;20076;-57
2022/03/19 08:23:58;;;;;;;13.73;4.95;;;;;;;8.71;82.02;104309.69;5073706;28;20495;-58
2022/03/19 08:26:27;;;;;;;11.63;4.60;;;;;;;8.80;80.21;104310.53;5073471;28;20442;-57
2022/03/19 08:28:55;;;;;;;17.35;5.68;;;;;;;8.78;78.79;104300.91;5073630;28;20052;-56
2022/03/19 08:31:23;;;;;;;13.45;4.60;;;;;;;8.81;78.15;104316.69;5073539;28;20415;-58
2022/03/19 08:33:51;;;;;;;13.13;4.78;;;;;;;9.08;77.21;104310.47;5072107;28;20147;-57
2022/03/19 08:36:20;;;;;;;13.93;5.47;;;;;;;9.35;77.34;104321.72;5073587;28;20385;-58
2022/03/19 08:41:34;;;;;;;13.55;5.47;;;;;;;9.42;74.64;104314.69;5073304;28;20040;-58
2022/03/19 08:44:05;;;;;;;11.43;4.43;;;;;;;9.48;73.96;104319.94;5073273;28;20040;-58
2022/03/19 08:46:33;;;;;;;13.88;4.85;;;;;;;9.57;73.46;104308.47;5073468;28;20131;-58
2022/03/19 08:49:01;;;;;;;14.20;4.07;;;;;;;9.86;73.03;104310.94;5073125;28;20040;-59
2022/03/19 08:51:42;;;;;;;13.43;4.30;;;;;;;10.24;72.02;104315.03;5072976;28;20059;-59
2022/03/19 08:54:14;;;;;;;14.20;4.22;;;;;;;10.27;68.95;104312.34;5073072;28;20076;-57
2022/03/19 08:56:42;;;;;;;10.95;3.65;;;;;;;10.52;67.45;104306.91;5072941;28;20055;-57
2022/03/19 08:59:12;;;;;;;11.52;3.50;;;;;;;10.58;65.47;104301.59;5072844;28;20158;-58
2022/03/19 09:01:41;;;;;;;8.98;3.90;;;;;;;10.88;66.05;104298.63;5072734;28;20033;-57
2022/03/19 09:04:10;;;;;;;10.48;3.55;;;;;;;10.82;63.12;104296.94;5072916;28;20056;-58
2022/03/19 09:06:41;;;;;;;11.35;3.70;;;;;;;10.80;63.33;104296.09;5072833;28;20041;-57
2022/03/19 09:09:11;;;;;;;11.23;3.47;;;;;;;11.19;63.67;104299.13;5072449;28;20510;-58
2022/03/19 09:11:39;;;;;;;10.00;3.15;;;;;;;11.18;60.92;104294.75;5072710;28;20045;-58
2022/03/19 09:14:08;;;;;;;13.00;3.45;;;;;;;11.48;61.42;104293.47;5072636;28;20071;-57
2022/03/19 09:16:37;;;;;;;11.68;3.25;;;;;;;11.40;58.52;104299.72;5072375;28;20117;-57
2022/03/19 09:19:05;;;;;;;14.05;3.63;;;;;;;11.62;57.08;104298.53;5072260;28;20052;-58
2022/03/19 09:21:34;;;;;;;9.27;2.95;;;;;;;11.82;55.04;104300.00;5072424;28;20044;-59
2022/03/19 09:24:04;;;;;;;12.63;3.88;;;;;;;11.95;54.58;104288.38;5072342;28;20448;-58
2022/03/19 09:26:32;;;;;;;12.75;3.20;;;;;;;11.97;54.01;104288.34;5072149;28;20503;-59
2022/03/19 09:29:00;;;;;;;9.15;3.15;;;;;;;11.74;53.62;104291.31;5071700;28;20466;-59
2022/03/19 09:31:30;;;;;;;10.57;2.88;;;;;;;11.88;53.29;104293.78;5072279;28;20442;-58
2022/03/19 09:33:58;;;;;;;9.40;2.72;;;;;;;12.03;52.55;104287.41;5072082;28;20094;-59
2022/03/19 09:36:26;;;;;;;11.40;2.88;;;;;;;12.26;50.96;104290.50;5072352;28;20050;-59
2022/03/19 09:38:54;;;;;;;8.00;2.30;;;;;;;12.49;49.40;104283.97;5071700;28;20060;-59
2022/03/19 09:41:24;;;;;;;7.65;2.30;;;;;;;12.61;47.48;104293.41;5071668;28;20052;-59
2022/03/19 09:43:53;;;;;;;8.73;2.33;;;;;;;12.33;45.61;104284.22;5072094;28;20045;-58
2022/03/19 09:46:21;;;;;;;7.78;2.13;;;;;;;12.38;45.06;104265.69;5070986;28;20498;-58
2022/03/19 09:48:49;;;;;;;6.22;2.17;;;;;;;12.72;43.95;104277.34;5071944;28;20095;-59
2022/03/19 09:51:18;;;;;;;6.95;2.22;;;;;;;12.82;43.38;104252.50;5071885;28;20437;-58
2022/03/19 09:53:48;;;;;;;7.00;2.17;;;;;;;12.81;41.57;104253.41;5070941;28;20534;-58
2022/03/19 09:56:33;;;;;;;9.35;2.28;;;;;;;12.88;39.89;104267.34;5071953;28;20456;-59
2022/03/19 09:59:02;;;;;;;8.32;2.50;;;;;;;13.02;40.53;104260.03;5071851;28;20090;-58
2022/03/19 10:01:33;;;;;;;8.45;2.80;;;;;;;13.41;42.39;104251.25;5071990;28;20094;-59
2022/03/19 10:04:02;;;;;;;11.73;3.05;;;;;;;13.48;42.55;104252.84;5071825;28;20049;-59
2022/03/19 10:09:21;;;;;;;6.93;2.50;;;;;;;13.85;41.52;104241.38;5072034;28;20551;-58
2022/03/19 10:11:53;;;;;;;8.75;3.42;;;;;;;14.16;40.65;104236.16;5071629;28;20075;-58
2022/03/19 10:14:23;;;;;;;7.70;2.58;;;;;;;14.14;39.03;104242.41;5071795;28;20123;-58
2022/03/19 10:16:52;;;;;;;6.50;2.60;;;;;;;14.00;38.51;104235.69;5072043;28;20044;-59
2022/03/19 10:19:21;;;;;;;10.07;3.10;;;;;;;14.18;38.56;104241.44;5071830;28;20101;-58
2022/03/19 10:21:49;;;;;;;6.97;2.58;;;;;;;13.99;38.05;104231.31;5070620;28;20043;-58
2022/03/19 10:24:28;;;;;;;10.50;2.75;;;;;;;13.78;37.69;104230.06;5071666;28;20491;-59
2022/03/19 10:26:58;;;;;;;8.15;2.55;;;;;;;13.88;36.72;104220.16;5071776;28;20098;-58
2022/03/19 10:29:33;;;;;;;6.72;2.30;;;;;;;14.34;36.10;104216.28;5071714;28;20475;-58
2022/03/19 10:32:04;;;;;;;8.13;2.88;;;;;;;14.38;35.48;104211.75;5074967;28;20048;-66
2022/03/19 10:34:34;;;;;;;6.22;2.20;;;;;;;14.35;33.55;104220.63;5075651;28;20049;-65
2022/03/19 10:37:02;;;;;;;6.55;2.42;;;;;;;14.39;32.79;104199.38;5075909;28;20052;-67
2022/03/19 10:39:31;;;;;;;5.82;1.80;;;;;;;14.54;32.91;104194.50;5075279;28;20449;-66
2022/03/19 10:42:15;;;;;;;8.45;2.40;;;;;;;14.54;31.23;104204.22;5075553;28;20052;-67
2022/03/19 10:44:48;;;;;;;9.07;2.20;;;;;;;14.33;31.90;104201.28;5075532;28;20127;-66
2022/03/19 10:47:22;;;;;;;5.93;2.03;;;;;;;14.35;32.45;104194.16;5075305;28;20051;-66
2022/03/19 10:49:50;;;;;;;9.13;2.17;;;;;;;14.44;31.43;104187.75;5075407;28;20056;-66
2022/03/19 10:52:19;;;;;;;8.52;2.13;;;;;;;14.58;32.01;104183.84;5075343;28;20052;-67
2022/03/19 10:54:48;;;;;;;7.05;1.92;;;;;;;14.92;31.29;104182.84;5075402;28;20052;-67
2022/03/19 10:57:18;;;;;;;11.07;2.40;;;;;;;15.08;32.09;104188.53;5075056;28;20037;-67
2022/03/19 10:59:46;;;;;;;5.30;2.00;;;;;;;15.37;31.52;104179.66;5075358;28;20037;-67
2022/03/19 11:02:16;;;;;;;8.50;2.00;;;;;;;15.17;30.79;104180.28;5075243;28;20119;-68
2022/03/19 11:04:47;;;;;;;10.75;2.15;;;;;;;15.13;31.65;104179.50;5075343;28;20052;-67
2022/03/19 11:07:19;;;;;;;6.60;2.20;;;;;;;14.98;31.45;104175.59;5075385;28;20040;-66
2022/03/19 11:09:51;;;;;;;6.68;2.20;;;;;;;15.36;31.85;104178.75;5075159;28;20131;-66
2022/03/19 11:12:26;;;;;;;6.03;2.10;;;;;;;15.81;30.50;104165.84;5074898;28;20123;-58
2022/03/19 11:14:55;;;;;;;8.73;2.13;;;;;;;15.91;30.10;104161.94;5074480;28;20056;-57
2022/03/19 11:17:27;;;;;;;6.82;2.03;;;;;;;16.02;30.29;104142.94;5074368;28;20052;-57
2022/03/19 11:19:58;;;;;;;6.07;1.85;;;;;;;15.92;28.57;104141.56;5074634;28;20098;-58
2022/03/19 11:22:28;;;;;;;7.07;1.90;;;;;;;16.16;28.62;104134.50;5075037;28;20042;-58
2022/03/19 11:25:03;;;;;;;5.60;1.83;;;;;;;16.00;28.40;104116.47;5074825;28;20052;-57
2022/03/19 11:27:36;;;;;;;7.20;1.73;;;;;;;16.25;27.89;104120.00;5074209;28;20055;-57
2022/03/19 11:30:06;;;;;;;7.28;1.98;;;;;;;15.94;26.41;104115.81;5072996;28;20040;-57
2022/03/19 11:32:34;;;;;;;6.07;1.65;;;;;;;15.86;27.29;104111.66;5074263;28;20051;-57
2022/03/19 11:35:05;;;;;;;7.80;1.63;;;;;;;16.02;26.66;104103.13;5075099;28;20115;-57
2022/03/19 11:38:01;;;;;;;6.28;1.50;;;;;;;16.23;27.10;104101.47;5074350;28;20045;-59
2022/03/19 11:40:33;;;;;;;4.22;1.67;;;;;;;16.36;27.12;104094.78;5050476;28;20525;-66